createdAt,value
2023-04-17T00:01:39.988Z,99341.28
2023-04-17T00:04:11.399Z,99343.81
2023-04-17T00:06:39.866Z,99343.22
2023-04-17T00:09:07.010Z,99342.38
2023-04-17T00:11:33.832Z,99340.56
2023-04-17T00:14:00.719Z,99341.38
2023-04-17T00:16:28.010Z,99345.75
2023-04-17T00:18:55.456Z,99337.19
2023-04-17T00:21:22.340Z,99340.56
2023-04-17T00:23:49.365Z,99332.88
2023-04-17T00:26:16.480Z,99344.03
2023-04-17T00:28:43.309Z,99332.91
2023-04-17T00:31:10.099Z,99330.59
2023-04-17T00:33:36.982Z,99330.50
2023-04-17T00:36:04.042Z,99330.31
2023-04-17T00:38:30.936Z,99333.69
2023-04-17T00:40:57.772Z,99329.44
2023-04-17T00:43:24.617Z,99327.94
2023-04-17T00:45:52.548Z,99328.78
2023-04-17T00:48:23.913Z,99328.66
2023-04-17T00:50:51.484Z,99321.66
2023-04-17T00:53:18.655Z,99324.31
2023-04-17T00:55:47.582Z,99327.63
2023-04-17T00:58:15.572Z,99315.56
2023-04-17T01:00:42.408Z,99319.09
2023-04-17T01:03:09.365Z,99310.66
2023-04-17T01:05:38.297Z,99326.13
2023-04-17T01:08:05.352Z,99325.22
2023-04-17T01:10:32.245Z,99320.94
2023-04-17T01:13:07.377Z,99322.75
2023-04-17T01:15:35.282Z,99316.84
2023-04-17T01:18:02.492Z,99315.19
2023-04-17T01:20:31.096Z,99310.38
2023-04-17T01:22:59.236Z,99308.31
2023-04-17T01:25:27.769Z,99310.66
2023-04-17T01:27:55.090Z,99313.91
2023-04-17T01:30:22.038Z,99311.53
2023-04-17T01:32:48.988Z,99305.47
2023-04-17T01:35:16.005Z,99310.53
2023-04-17T01:37:42.860Z,99313.25
2023-04-17T01:40:10.261Z,99317.56
2023-04-17T01:42:37.108Z,99309.75
2023-04-17T01:45:05.268Z,99310.72
2023-04-17T01:47:32.222Z,99304.84
2023-04-17T01:49:59.083Z,99315.19
2023-04-17T01:52:25.910Z,99307.22
2023-04-17T01:54:52.831Z,99278.47
2023-04-17T01:57:19.646Z,99310.47
2023-04-17T01:59:46.506Z,99310.59
2023-04-17T02:02:13.455Z,99314.78
2023-04-17T02:04:40.558Z,99313.91
2023-04-17T02:07:07.514Z,99306.28
2023-04-17T02:09:34.346Z,99309.44
2023-04-17T02:12:01.706Z,99302.41
2023-04-17T02:14:31.178Z,99299.81
2023-04-17T02:16:58.250Z,99297.59
2023-04-17T02:19:25.150Z,99297.38
2023-04-17T02:21:52.012Z,99300.81
2023-04-17T02:24:18.875Z,99293.97
2023-04-17T02:26:46.239Z,99308.53
2023-04-17T02:29:13.219Z,99303.41
2023-04-17T02:31:43.937Z,99304.25
2023-04-17T02:34:10.926Z,99306.06
2023-04-17T02:36:37.736Z,99302.53
2023-04-17T02:39:05.451Z,99307.63
2023-04-17T02:41:32.339Z,99308.72
2023-04-17T02:44:01.701Z,99307.09
2023-04-17T02:46:28.538Z,99315.78
2023-04-17T02:48:55.364Z,99306.38
2023-04-17T02:51:22.171Z,99311.31
2023-04-17T02:53:49.289Z,99317.56
2023-04-17T02:56:16.118Z,99313.25
2023-04-17T02:58:44.964Z,99314.84
2023-04-17T03:01:11.921Z,99310.59
2023-04-17T03:03:42.057Z,99306.38
2023-04-17T03:06:09.954Z,99306.44
2023-04-17T03:08:38.635Z,99317.44
2023-04-17T03:11:06.464Z,99319.28
2023-04-17T03:13:36.645Z,99313.38
2023-04-17T03:16:04.725Z,99310.25
2023-04-17T03:18:31.827Z,99308.50
2023-04-17T03:20:58.750Z,99296.66
2023-04-17T03:23:25.614Z,99293.28
2023-04-17T03:25:52.667Z,99308.56
2023-04-17T03:28:19.568Z,99308.69
2023-04-17T03:30:46.360Z,99307.06
2023-04-17T03:33:13.227Z,99313.16
2023-04-17T03:35:40.097Z,99309.72
2023-04-17T03:38:06.926Z,99309.06
2023-04-17T03:40:33.992Z,99307.91
2023-04-17T03:43:01.884Z,99317.47
2023-04-17T03:45:28.693Z,99321.72
2023-04-17T03:47:55.599Z,99317.59
2023-04-17T03:50:22.480Z,99319.16
2023-04-17T03:52:49.281Z,99326.16
2023-04-17T03:55:16.915Z,99329.47
2023-04-17T03:57:43.724Z,99326.88
2023-04-17T04:00:11.373Z,99332.00
2023-04-17T04:02:38.284Z,99331.84
2023-04-17T04:05:05.657Z,99322.38
2023-04-17T04:07:32.496Z,99325.66
2023-04-17T04:09:59.304Z,99328.13
2023-04-17T04:12:26.131Z,99334.09
2023-04-17T04:14:52.946Z,99331.44
2023-04-17T04:17:19.809Z,99329.28
2023-04-17T04:19:47.899Z,99339.25
2023-04-17T04:22:14.803Z,99330.66
2023-04-17T04:24:42.860Z,99332.66
2023-04-17T04:27:10.168Z,99329.00
2023-04-17T04:29:37.797Z,99333.31
2023-04-17T04:32:04.960Z,99333.31
2023-04-17T04:34:31.770Z,99340.00
2023-04-17T04:36:58.790Z,99343.88
2023-04-17T04:39:25.676Z,99343.22
2023-04-17T04:41:52.779Z,99338.91
2023-04-17T04:44:20.309Z,99342.00
2023-04-17T04:46:47.459Z,99346.38
2023-04-17T04:49:14.334Z,99340.22
2023-04-17T04:51:41.255Z,99345.53
2023-04-17T04:54:08.292Z,99346.47
2023-04-17T04:56:35.087Z,99344.88
2023-04-17T04:59:01.925Z,99345.09
2023-04-17T05:01:29.815Z,99350.84
2023-04-17T05:03:57.130Z,99357.53
2023-04-17T05:06:24.021Z,99356.72
2023-04-17T05:08:51.995Z,99355.03
2023-04-17T05:11:18.867Z,99356.88
2023-04-17T05:13:45.712Z,99361.19
2023-04-17T05:16:12.540Z,99358.38
2023-04-17T05:18:39.464Z,99362.66
2023-04-17T05:21:06.298Z,99363.44
2023-04-17T05:23:33.128Z,99361.69
2023-04-17T05:25:59.937Z,99370.31
2023-04-17T05:28:27.297Z,99359.19
2023-04-17T05:30:54.125Z,99370.19
2023-04-17T05:33:20.941Z,99367.47
2023-04-17T05:35:48.297Z,99370.06
2023-04-17T05:38:15.147Z,99365.91
2023-04-17T05:40:41.970Z,99369.53
2023-04-17T05:43:12.231Z,99371.19
2023-04-17T05:45:41.349Z,99381.41
2023-04-17T05:48:08.427Z,99375.31
2023-04-17T05:50:37.318Z,99370.53
2023-04-17T05:53:05.067Z,99380.16
2023-04-17T05:55:31.883Z,99373.38
2023-04-17T05:57:58.779Z,99372.34
2023-04-17T06:00:25.590Z,99377.66
2023-04-17T06:02:52.506Z,99371.56
2023-04-17T06:05:19.514Z,99370.66
2023-04-17T06:07:46.452Z,99377.47
2023-04-17T06:10:13.352Z,99376.56
2023-04-17T06:12:40.176Z,99368.16
2023-04-17T06:15:09.225Z,99381.75
2023-04-17T06:17:38.048Z,99384.41
2023-04-17T06:20:10.085Z,99380.91
2023-04-17T06:22:41.176Z,99386.78
2023-04-17T06:25:08.495Z,99385.84
2023-04-17T06:27:36.812Z,99387.66
2023-04-17T06:30:05.124Z,99382.63
2023-04-17T06:32:31.953Z,99387.66
2023-04-17T06:34:59.687Z,99392.16
2023-04-17T06:37:26.831Z,99385.34
2023-04-17T06:39:53.631Z,99397.28
2023-04-17T06:42:20.631Z,99393.03
2023-04-17T06:44:47.491Z,99388.72
2023-04-17T06:47:14.378Z,99400.47
2023-04-17T06:49:41.256Z,99393.53
2023-04-17T06:52:08.091Z,99394.28
2023-04-17T06:54:34.882Z,99371.75
2023-04-17T06:57:03.227Z,99399.53
2023-04-17T06:59:30.029Z,99390.16
2023-04-17T07:01:57.000Z,99401.38
2023-04-17T07:04:24.123Z,99397.75
2023-04-17T07:06:51.093Z,99403.78
2023-04-17T07:09:17.928Z,99406.28
2023-04-17T07:11:44.768Z,99408.09
2023-04-17T07:14:12.925Z,99408.34
2023-04-17T07:16:40.362Z,99402.03
2023-04-17T07:19:07.247Z,99402.13
2023-04-17T07:21:34.155Z,99406.28
2023-04-17T07:24:00.955Z,99404.72
2023-04-17T07:26:27.816Z,99412.44
2023-04-17T07:28:54.697Z,99416.00
2023-04-17T07:31:22.166Z,99416.78
2023-04-17T07:33:49.295Z,99420.91
2023-04-17T07:36:16.795Z,99415.06
2023-04-17T07:38:43.774Z,99415.06
2023-04-17T07:41:12.263Z,99427.00
2023-04-17T07:43:39.085Z,99416.66
2023-04-17T07:46:05.976Z,99420.25
2023-04-17T07:48:32.842Z,99390.78
2023-04-17T07:51:03.293Z,99427.25
2023-04-17T07:53:30.330Z,99428.94
2023-04-17T07:55:58.274Z,99425.44
2023-04-17T07:58:27.006Z,99426.53
2023-04-17T08:00:53.908Z,99425.50
2023-04-17T08:03:24.225Z,99432.19
2023-04-17T08:05:54.352Z,99434.78
2023-04-17T08:08:22.845Z,99430.44
2023-04-17T08:10:50.652Z,99432.97
2023-04-17T08:13:17.463Z,99434.78
2023-04-17T08:15:45.766Z,99431.31
2023-04-17T08:18:12.614Z,99437.34
2023-04-17T08:20:40.067Z,99435.44
2023-04-17T08:23:07.231Z,99440.47
2023-04-17T08:25:34.147Z,99442.25
2023-04-17T08:28:01.023Z,99443.84
2023-04-17T08:30:27.919Z,99447.97
2023-04-17T08:32:55.617Z,99446.28
2023-04-17T08:35:22.745Z,99445.38
2023-04-17T08:37:49.660Z,99439.53
2023-04-17T08:40:18.585Z,99447.22
2023-04-17T08:42:47.817Z,99415.78
2023-04-17T08:45:15.178Z,99445.25
2023-04-17T08:47:43.307Z,99445.97
2023-04-17T08:50:16.696Z,99451.16
2023-04-17T08:52:49.050Z,99451.94
2023-04-17T08:55:22.558Z,99448.44
2023-04-17T08:58:04.326Z,99428.59
2023-04-17T09:00:34.042Z,99458.91
2023-04-17T09:03:04.011Z,99453.53
2023-04-17T09:05:37.068Z,99452.72
2023-04-17T09:08:16.566Z,99452.78
2023-04-17T09:10:54.542Z,99457.69
2023-04-17T09:13:25.353Z,99456.75
2023-04-17T09:16:13.326Z,99451.56
2023-04-17T09:18:42.944Z,99455.44
2023-04-17T09:21:10.325Z,99459.41
2023-04-17T09:24:07.511Z,99455.19
2023-04-17T09:26:34.319Z,99456.13
2023-04-17T09:29:04.271Z,99458.63
2023-04-17T09:31:34.787Z,99458.44
2023-04-17T09:34:13.061Z,99456.81
2023-04-17T09:36:43.296Z,99459.88
2023-04-17T09:39:23.929Z,99460.66
2023-04-17T09:41:51.350Z,99449.50
2023-04-17T09:44:27.114Z,99461.09
2023-04-17T09:46:54.977Z,99456.50
2023-04-17T09:49:34.388Z,99452.88
2023-04-17T09:52:02.842Z,99443.69
2023-04-17T09:54:37.727Z,99444.56
2023-04-17T09:57:08.223Z,99458.44
2023-04-17T09:59:40.795Z,99456.69
2023-04-17T10:02:12.468Z,99453.25
2023-04-17T10:04:45.258Z,99457.50
2023-04-17T10:07:13.212Z,99448.91
2023-04-17T10:09:41.980Z,99460.81
2023-04-17T10:12:18.847Z,99458.13
2023-04-17T10:14:50.231Z,99453.69
2023-04-17T10:17:28.638Z,99454.31
2023-04-17T10:19:55.907Z,99449.00
2023-04-17T10:22:24.320Z,99447.44
2023-04-17T10:25:11.404Z,99456.13
2023-04-17T10:27:38.898Z,99443.34
2023-04-17T10:30:12.821Z,99445.94
2023-04-17T10:32:45.566Z,99452.47
2023-04-17T10:35:18.223Z,99443.13
2023-04-17T10:37:48.089Z,99446.56
2023-04-17T10:40:23.038Z,99441.81
2023-04-17T10:43:12.653Z,99436.50
2023-04-17T10:46:12.292Z,99440.75
2023-04-17T10:48:52.594Z,99439.69
2023-04-17T10:51:28.794Z,99434.50
2023-04-17T10:54:10.538Z,99422.53
2023-04-17T10:56:48.769Z,99428.38
2023-04-17T10:59:17.962Z,99428.44
2023-04-17T11:01:51.016Z,99420.53
2023-04-17T11:04:38.371Z,99421.31
2023-04-17T11:07:05.648Z,99422.59
2023-04-17T11:09:32.526Z,99425.97
2023-04-17T11:12:03.458Z,99420.78
2023-04-17T11:14:30.699Z,99413.66
2023-04-17T11:16:57.639Z,99410.03
2023-04-17T11:19:25.905Z,99408.34
2023-04-17T11:21:57.295Z,99409.91
2023-04-17T11:24:31.827Z,99409.00
2023-04-17T11:27:00.972Z,99410.03
2023-04-17T11:29:28.241Z,99414.44
2023-04-17T11:31:56.961Z,99407.50
2023-04-17T11:34:26.636Z,99410.03
2023-04-17T11:36:57.298Z,99402.25
2023-04-17T11:39:28.240Z,99404.19
2023-04-17T11:41:57.056Z,99393.75
2023-04-17T11:44:24.581Z,99396.81
2023-04-17T11:46:56.774Z,99394.09
2023-04-17T11:49:31.790Z,99396.81
2023-04-17T11:52:04.304Z,99398.34
2023-04-17T11:54:38.679Z,99397.19
2023-04-17T11:57:14.655Z,99394.19
2023-04-17T11:59:44.607Z,99401.34
2023-04-17T12:02:12.498Z,99397.19
2023-04-17T12:04:40.611Z,99383.31
2023-04-17T12:07:21.739Z,99393.16
2023-04-17T12:09:56.911Z,99388.09
2023-04-17T12:12:23.729Z,99381.94
2023-04-17T12:14:50.588Z,99394.19
2023-04-17T12:17:17.421Z,99390.66
2023-04-17T12:19:45.212Z,99376.38
2023-04-17T12:22:12.046Z,99385.50
2023-04-17T12:24:38.867Z,99388.88
2023-04-17T12:27:05.828Z,99401.16
2023-04-17T12:29:43.700Z,99401.00
2023-04-17T12:32:11.597Z,99405.97
2023-04-17T12:34:38.615Z,99406.66
2023-04-17T12:37:05.576Z,99409.47
2023-04-17T12:39:32.755Z,99412.75
2023-04-17T12:41:59.579Z,99416.09
2023-04-17T12:44:26.395Z,99415.06
2023-04-17T12:46:53.226Z,99412.16
2023-04-17T12:49:20.554Z,99417.13
2023-04-17T12:51:47.368Z,99408.50
2023-04-17T12:54:14.432Z,99407.38
2023-04-17T12:56:41.362Z,99402.19
2023-04-17T12:59:08.210Z,99409.09
2023-04-17T13:01:35.300Z,99392.91
2023-04-17T13:04:02.703Z,99396.44
2023-04-17T13:06:29.732Z,99396.44
2023-04-17T13:08:56.669Z,99393.06
2023-04-17T13:11:23.465Z,99390.47
2023-04-17T13:13:50.277Z,99398.34
2023-04-17T13:16:17.272Z,99391.75
2023-04-17T13:18:44.181Z,99387.34
2023-04-17T13:21:11.031Z,99393.84
2023-04-17T13:23:37.876Z,99379.16
2023-04-17T13:26:04.962Z,99387.47
2023-04-17T13:28:31.826Z,99384.03
2023-04-17T13:30:58.698Z,99373.03
2023-04-17T13:33:25.580Z,99365.47
2023-04-17T13:35:53.789Z,99370.63
2023-04-17T13:38:20.645Z,99371.47
2023-04-17T13:40:47.479Z,99374.13
2023-04-17T13:43:14.317Z,99381.75
2023-04-17T13:45:41.248Z,99382.53
2023-04-17T13:48:08.231Z,99385.00
2023-04-17T13:50:35.330Z,99382.28
2023-04-17T13:53:02.196Z,99378.38
2023-04-17T13:55:29.011Z,99376.25
2023-04-17T13:57:55.831Z,99364.22
2023-04-17T14:00:22.757Z,99364.84
2023-04-17T14:02:49.795Z,99368.88
2023-04-17T14:05:16.963Z,99370.06
2023-04-17T14:07:44.575Z,99356.75
2023-04-17T14:10:11.439Z,99357.63
2023-04-17T14:12:38.256Z,99358.50
2023-04-17T14:15:07.375Z,99361.63
2023-04-17T14:17:37.951Z,99369.03
2023-04-17T14:20:06.047Z,99362.94
2023-04-17T14:22:32.874Z,99376.66
2023-04-17T14:24:59.684Z,99383.63
2023-04-17T14:27:26.504Z,99374.16
2023-04-17T14:29:53.366Z,99370.78
2023-04-17T14:32:20.185Z,99367.53
2023-04-17T14:34:47.020Z,99366.72
2023-04-17T14:37:13.889Z,99360.06
2023-04-17T14:39:40.697Z,99367.53
2023-04-17T14:42:07.521Z,99352.91
2023-04-17T14:44:34.718Z,99356.47
2023-04-17T14:47:02.162Z,99352.19
2023-04-17T14:49:31.810Z,99351.41
2023-04-17T14:51:58.610Z,99343.00
2023-04-17T14:54:25.496Z,99344.63
2023-04-17T14:56:52.325Z,99347.00
2023-04-17T14:59:19.190Z,99347.88
2023-04-17T15:01:46.324Z,99342.75
2023-04-17T15:04:13.400Z,99338.72
2023-04-17T15:06:40.520Z,99339.91
2023-04-17T15:09:07.333Z,99339.91
2023-04-17T15:11:34.373Z,99343.38
2023-04-17T15:14:01.194Z,99344.22
2023-04-17T15:16:28.222Z,99344.44
2023-04-17T15:18:55.034Z,99350.53
2023-04-17T15:21:21.834Z,99348.56
2023-04-17T15:23:48.676Z,99347.75
2023-04-17T15:26:15.711Z,99343.50
2023-04-17T15:28:42.559Z,99342.88
2023-04-17T15:31:09.507Z,99344.66
2023-04-17T15:33:37.617Z,99340.72
2023-04-17T15:36:04.521Z,99343.78
2023-04-17T15:38:31.355Z,99343.47
2023-04-17T15:40:58.834Z,99341.06
2023-04-17T15:43:25.915Z,99350.94
2023-04-17T15:45:52.850Z,99344.13
2023-04-17T15:48:19.831Z,99346.94
2023-04-17T15:50:46.834Z,99338.09
2023-04-17T15:53:13.751Z,99343.13
2023-04-17T15:55:41.163Z,99349.03
2023-04-17T15:58:08.350Z,99344.34
2023-04-17T16:00:35.219Z,99339.25
2023-04-17T16:03:02.277Z,99344.91
2023-04-17T16:05:30.611Z,99346.88
2023-04-17T16:07:57.681Z,99349.31
2023-04-17T16:10:24.691Z,99344.13
2023-04-17T16:12:51.516Z,99344.97
2023-04-17T16:15:18.555Z,99346.78
2023-04-17T16:17:45.971Z,99344.00
2023-04-17T16:20:13.109Z,99344.84
2023-04-17T16:22:40.447Z,99343.03
2023-04-17T16:25:07.739Z,99340.72
2023-04-17T16:27:34.863Z,99342.38
2023-04-17T16:30:02.921Z,99348.50
2023-04-17T16:32:31.653Z,99343.09
2023-04-17T16:34:58.785Z,99343.88
2023-04-17T16:37:25.931Z,99348.72
2023-04-17T16:39:52.820Z,99344.66
2023-04-17T16:42:19.644Z,99347.88
2023-04-17T16:44:46.751Z,99355.03
2023-04-17T16:47:14.757Z,99347.50
2023-04-17T16:49:42.650Z,99355.56
2023-04-17T16:52:09.930Z,99357.38
2023-04-17T16:54:36.738Z,99353.88
2023-04-17T16:57:04.994Z,99351.41
2023-04-17T16:59:32.253Z,99356.59
2023-04-17T17:02:02.316Z,99353.50
2023-04-17T17:04:30.131Z,99363.59
2023-04-17T17:06:57.671Z,99351.56
2023-04-17T17:09:25.728Z,99359.19
2023-04-17T17:11:52.561Z,99362.34
2023-04-17T17:14:19.353Z,99367.19
2023-04-17T17:16:46.193Z,99374.84
2023-04-17T17:19:14.655Z,99372.31
2023-04-17T17:21:41.671Z,99372.38
2023-04-17T17:24:08.575Z,99372.88
2023-04-17T17:26:36.785Z,99377.84
2023-04-17T17:29:04.125Z,99374.63
2023-04-17T17:31:32.476Z,99371.13
2023-04-17T17:34:11.957Z,99368.63
2023-04-17T17:36:49.028Z,99374.69
2023-04-17T17:39:16.358Z,99377.22
2023-04-17T17:41:45.195Z,99374.84
2023-04-17T17:44:13.703Z,99384.09
2023-04-17T17:46:40.916Z,99383.97
2023-04-17T17:49:07.718Z,99386.53
2023-04-17T17:51:34.526Z,99374.56
2023-04-17T17:54:01.338Z,99387.53
2023-04-17T17:56:28.473Z,99389.06
2023-04-17T17:58:55.376Z,99389.22
2023-04-17T18:01:24.610Z,99397.69
2023-04-17T18:03:51.854Z,99388.75
2023-04-17T18:06:18.791Z,99393.16
2023-04-17T18:08:45.716Z,99392.22
2023-04-17T18:11:13.766Z,99398.41
2023-04-17T18:13:40.632Z,99393.22
2023-04-17T18:16:07.819Z,99397.56
2023-04-17T18:18:34.689Z,99396.59
2023-04-17T18:21:09.249Z,99387.19
2023-04-17T18:23:36.183Z,99399.13
2023-04-17T18:26:04.075Z,99400.06
2023-04-17T18:28:31.040Z,99404.56
2023-04-17T18:30:57.928Z,99403.59
2023-04-17T18:33:24.838Z,99412.34
2023-04-17T18:35:51.869Z,99403.16
2023-04-17T18:38:18.701Z,99412.41
2023-04-17T18:40:45.541Z,99406.50
2023-04-17T18:43:12.417Z,99409.88
2023-04-17T18:45:39.230Z,99415.06
2023-04-17T18:48:06.349Z,99421.94
2023-04-17T18:50:33.166Z,99412.56
2023-04-17T18:52:59.977Z,99413.78
2023-04-17T18:55:26.769Z,99413.66
2023-04-17T18:57:53.605Z,99425.53
2023-04-17T19:00:20.541Z,99421.25
2023-04-17T19:02:47.803Z,99427.25
2023-04-17T19:05:15.068Z,99429.94
2023-04-17T19:07:41.936Z,99423.00
2023-04-17T19:10:09.550Z,99430.84
2023-04-17T19:12:36.402Z,99434.22
2023-04-17T19:15:04.396Z,99432.53
2023-04-17T19:17:31.566Z,99432.44
2023-04-17T19:19:58.526Z,99429.06
2023-04-17T19:22:25.348Z,99431.03
2023-04-17T19:24:52.938Z,99431.03
2023-04-17T19:27:20.169Z,99421.75
2023-04-17T19:29:47.432Z,99427.75
2023-04-17T19:32:16.555Z,99434.47
2023-04-17T19:34:44.164Z,99425.09
2023-04-17T19:37:11.072Z,99430.28
2023-04-17T19:39:37.963Z,99431.16
2023-04-17T19:42:05.539Z,99442.31
2023-04-17T19:44:32.372Z,99437.13
2023-04-17T19:46:59.271Z,99439.72
2023-04-17T19:49:26.208Z,99442.38
2023-04-17T19:51:53.024Z,99439.84
2023-04-17T19:54:19.802Z,99443.31
2023-04-17T19:56:46.614Z,99439.06
2023-04-17T19:59:14.158Z,99441.53
2023-04-17T20:01:43.446Z,99430.44
2023-04-17T20:04:11.128Z,99429.78
2023-04-17T20:06:39.448Z,99430.78
2023-04-17T20:09:06.557Z,99425.63
2023-04-17T20:11:33.765Z,99433.16
2023-04-17T20:14:00.589Z,99432.22
2023-04-17T20:16:27.506Z,99432.38
2023-04-17T20:18:56.591Z,99424.59
2023-04-17T20:21:24.125Z,99434.13
2023-04-17T20:23:51.129Z,99433.38
2023-04-17T20:26:18.209Z,99420.50
2023-04-17T20:28:45.206Z,99433.38
2023-04-17T20:31:12.207Z,99426.75
2023-04-17T20:33:39.081Z,99433.47
2023-04-17T20:36:06.172Z,99423.09
2023-04-17T20:38:33.096Z,99426.63
2023-04-17T20:41:00.044Z,99427.56
2023-04-17T20:43:26.868Z,99427.66
2023-04-17T20:45:53.688Z,99426.84
2023-04-17T20:48:21.585Z,99427.56
2023-04-17T20:50:48.524Z,99425.06
2023-04-17T20:53:15.478Z,99428.56
2023-04-17T20:55:42.313Z,99420.94
2023-04-17T20:58:09.333Z,99423.53
2023-04-17T21:00:37.241Z,99420.84
2023-04-17T21:03:07.125Z,99420.94
2023-04-17T21:05:33.996Z,99422.66
2023-04-17T21:08:00.828Z,99417.56
2023-04-17T21:10:28.700Z,99417.56
2023-04-17T21:12:55.515Z,99414.97
2023-04-17T21:15:22.418Z,99410.72
2023-04-17T21:17:49.232Z,99420.28
2023-04-17T21:20:16.062Z,99420.28
2023-04-17T21:22:42.851Z,99405.97
2023-04-17T21:25:10.916Z,99415.19
2023-04-17T21:27:37.910Z,99416.13
2023-04-17T21:30:07.379Z,99408.41
2023-04-17T21:32:34.559Z,99410.28
2023-04-17T21:35:01.375Z,99413.66
2023-04-17T21:37:28.189Z,99417.16
2023-04-17T21:39:55.129Z,99412.81
2023-04-17T21:42:24.425Z,99408.47
2023-04-17T21:44:51.358Z,99411.97
2023-04-17T21:47:19.549Z,99413.66
2023-04-17T21:49:47.466Z,99423.25
2023-04-17T21:52:15.826Z,99407.06
2023-04-17T21:54:43.666Z,99414.69
2023-04-17T21:57:10.849Z,99411.31
2023-04-17T21:59:37.775Z,99401.88
2023-04-17T22:02:04.642Z,99413.09
2023-04-17T22:04:31.703Z,99398.56
2023-04-17T22:06:58.642Z,99411.44
2023-04-17T22:09:27.758Z,99402.81
2023-04-17T22:11:56.476Z,99400.31
2023-04-17T22:14:23.331Z,99398.63
2023-04-17T22:16:50.364Z,99400.31
2023-04-17T22:19:17.172Z,99393.38
2023-04-17T22:21:44.002Z,99390.94
2023-04-17T22:24:11.393Z,99393.53
2023-04-17T22:26:38.354Z,99395.41
2023-04-17T22:29:05.308Z,99397.06
2023-04-17T22:31:32.229Z,99397.00
2023-04-17T22:33:59.196Z,99385.91
2023-04-17T22:36:26.380Z,99385.09
2023-04-17T22:38:53.255Z,99384.25
2023-04-17T22:41:20.210Z,99393.97
2023-04-17T22:43:50.189Z,99394.75
2023-04-17T22:46:17.160Z,99398.22
2023-04-17T22:48:45.054Z,99399.84
2023-04-17T22:51:12.902Z,99396.41
2023-04-17T22:53:39.843Z,99388.72
2023-04-17T22:56:06.745Z,99392.91
2023-04-17T22:58:34.169Z,99388.72
2023-04-17T23:01:00.986Z,99379.28
2023-04-17T23:03:28.001Z,99388.66
2023-04-17T23:05:54.903Z,99383.53
2023-04-17T23:08:23.172Z,99391.31
2023-04-17T23:11:03.761Z,99388.84
2023-04-17T23:13:31.643Z,99388.91
2023-04-17T23:15:58.503Z,99389.63
2023-04-17T23:18:25.393Z,99386.97
2023-04-17T23:20:52.248Z,99391.31
2023-04-17T23:23:19.048Z,99380.94
2023-04-17T23:25:46.090Z,99386.13
2023-04-17T23:28:12.938Z,99387.78
2023-04-17T23:30:39.944Z,99385.69
2023-04-17T23:33:06.890Z,99384.69
2023-04-17T23:35:33.877Z,99377.69
2023-04-17T23:38:00.677Z,99378.66
2023-04-17T23:40:28.170Z,99383.13
2023-04-17T23:42:55.431Z,99381.19
2023-04-17T23:45:22.238Z,99382.03
2023-04-17T23:47:49.070Z,99386.44
2023-04-17T23:50:16.068Z,99382.16
2023-04-17T23:52:42.915Z,99379.66
2023-04-17T23:55:09.796Z,99371.81
2023-04-17T23:57:37.854Z,99372.72
